Time;durP1;ratioP1;P1;durP2;ratioP2;P2;SDS_P1;SDS_P2;PMS_P1;PMS_P2;Temp;Humidity;BMP_temperature;BMP_pressure;BME280_temperature;BME280_humidity;BME280_pressure;Samples;Min_cycle;Max_cycle;Signal;HPM_P1;HPM_P2
2023/04/28 00:00:50;;;;;;;;;;;7.60;99.90;;;;;;5063236;28;20483;-78
2023/04/28 00:03:16;;;;;;;;;;;7.60;99.90;;;;;;5062723;28;19933;-77
2023/04/28 00:05:41;;;;;;;;;;;7.60;99.90;;;;;;5064797;28;19935;-78
2023/04/28 00:08:07;;;;;;;;;;;7.50;99.90;;;;;;5059551;28;19928;-77
2023/04/28 00:10:33;;;;;;;;;;;7.50;99.90;;;;;;5056698;28;19927;-78
2023/04/28 00:12:58;;;;;;;;;;;7.50;99.90;;;;;;5058431;28;19928;-77
2023/04/28 00:15:24;;;;;;;;;;;7.50;99.90;;;;;;5073979;28;19924;-78
2023/04/28 00:17:50;;;;;;;;;;;7.50;99.90;;;;;;5052956;28;19954;-77
2023/04/28 00:20:15;;;;;;;;;;;7.40;99.90;;;;;;5055250;28;19925;-77
2023/04/28 00:22:41;;;;;;;;;;;7.40;99.90;;;;;;5035847;28;19932;-79
2023/04/28 00:25:07;;;;;;;;;;;7.50;99.90;;;;;;5060689;28;21256;-77
2023/04/28 00:27:33;;;;;;;;;;;7.40;99.90;;;;;;5055981;28;20011;-77
2023/04/28 00:29:58;;;;;;;;;;;7.40;99.90;;;;;;5056888;28;20613;-77
2023/04/28 00:32:24;;;;;;;;;;;7.40;99.90;;;;;;5058656;28;19959;-78
2023/04/28 00:34:50;;;;;;;;;;;7.40;99.90;;;;;;5051548;28;19928;-78
2023/04/28 00:37:16;;;;;;;;;;;7.30;99.90;;;;;;5056960;28;19939;-77
2023/04/28 00:39:45;;;;;;;;;;;7.40;99.90;;;;;;5052527;28;19932;-78
2023/04/28 00:42:11;;;;;;;;;;;7.30;99.90;;;;;;5054293;28;20373;-77
2023/04/28 00:44:38;;;;;;;;;;;7.40;99.90;;;;;;5069601;28;19928;-78
2023/04/28 00:47:04;;;;;;;;;;;7.40;99.90;;;;;;5068859;28;20355;-77
2023/04/28 00:49:30;;;;;;;;;;;7.40;99.90;;;;;;5060555;28;20069;-78
2023/04/28 00:51:56;;;;;;;;;;;7.40;99.90;;;;;;5056661;28;20019;-77
2023/04/28 00:54:22;;;;;;;;;;;7.40;99.90;;;;;;5044000;28;19928;-77
2023/04/28 00:56:47;;;;;;;;;;;7.30;99.90;;;;;;5061778;28;19935;-78
2023/04/28 00:59:13;;;;;;;;;;;7.30;99.90;;;;;;5069965;28;19936;-78
2023/04/28 01:01:39;;;;;;;;;;;7.30;99.90;;;;;;5073221;28;19981;-78
2023/04/28 01:04:04;;;;;;;;;;;7.30;99.90;;;;;;5068166;28;20027;-78
2023/04/28 01:06:30;;;;;;;;;;;7.30;99.90;;;;;;5072035;28;20339;-78
2023/04/28 01:08:56;;;;;;;;;;;7.30;99.90;;;;;;5069145;28;20297;-78
2023/04/28 01:11:21;;;;;;;;;;;7.20;99.90;;;;;;5068342;28;19929;-78
2023/04/28 01:13:47;;;;;;;;;;;7.30;99.90;;;;;;5077389;28;19928;-78
2023/04/28 01:16:12;;;;;;;;;;;7.30;99.90;;;;;;5072381;28;19935;-77
2023/04/28 01:18:41;;;;;;;;;;;7.30;99.90;;;;;;5072337;28;19932;-77
2023/04/28 01:21:07;;;;;;;;;;;7.30;99.90;;;;;;5070292;28;20042;-78
2023/04/28 01:23:32;;;;;;;;;;;7.30;99.90;;;;;;5073359;28;19924;-78
2023/04/28 01:25:58;;;;;;;;;;;7.30;99.90;;;;;;5076511;28;20046;-78
2023/04/28 01:28:23;;;;;;;;;;;7.30;99.90;;;;;;5070732;28;20372;-78
2023/04/28 01:30:49;;;;;;;;;;;7.30;99.90;;;;;;5070651;28;20304;-78
2023/04/28 01:33:14;;;;;;;;;;;7.30;99.90;;;;;;5070002;28;20519;-78
2023/04/28 01:35:40;;;;;;;;;;;7.20;99.90;;;;;;5070493;28;19936;-78
2023/04/28 01:38:05;;;;;;;;;;;7.40;99.90;;;;;;5070581;28;19939;-78
2023/04/28 01:40:31;;;;;;;;;;;7.30;99.90;;;;;;5072988;28;19935;-78
2023/04/28 01:42:56;;;;;;;;;;;7.30;99.90;;;;;;5054093;28;19972;-78
2023/04/28 01:45:22;;;;;;;;;;;7.30;99.90;;;;;;5070837;28;20383;-77
2023/04/28 01:47:48;;;;;;;;;;;7.30;99.90;;;;;;5054462;28;19928;-77
2023/04/28 01:50:13;;;;;;;;;;;7.30;99.90;;;;;;5062154;28;20101;-78
2023/04/28 01:52:39;;;;;;;;;;;7.40;99.90;;;;;;5069070;28;19971;-78
2023/04/28 01:55:05;;;;;;;;;;;7.30;99.90;;;;;;5063695;28;19928;-78
2023/04/28 01:57:32;;;;;;;;;;;7.30;99.90;;;;;;5068491;28;19950;-77
2023/04/28 01:59:59;;;;;;;;;;;7.30;99.90;;;;;;5065446;28;20036;-78
2023/04/28 02:02:24;;;;;;;;;;;7.30;99.90;;;;;;5068599;28;20022;-78
2023/04/28 02:04:50;;;;;;;;;;;7.40;99.90;;;;;;5067707;28;19946;-77
2023/04/28 02:07:15;;;;;;;;;;;7.40;99.90;;;;;;5065349;28;19933;-78
2023/04/28 02:09:41;;;;;;;;;;;7.40;99.90;;;;;;5069576;28;19935;-77
2023/04/28 02:12:07;;;;;;;;;;;7.30;99.90;;;;;;5067782;28;19936;-78
2023/04/28 02:14:32;;;;;;;;;;;7.40;99.90;;;;;;5065903;28;19924;-78
2023/04/28 02:16:58;;;;;;;;;;;7.40;99.90;;;;;;5065532;28;19928;-78
2023/04/28 02:19:23;;;;;;;;;;;7.40;99.90;;;;;;5067204;28;19959;-78
2023/04/28 02:21:49;;;;;;;;;;;7.40;99.90;;;;;;5064731;28;20014;-78
2023/04/28 02:24:14;;;;;;;;;;;7.40;99.90;;;;;;5068451;28;19932;-78
2023/04/28 02:26:40;;;;;;;;;;;7.30;99.90;;;;;;5061437;28;19982;-77
2023/04/28 02:29:06;;;;;;;;;;;7.30;99.90;;;;;;5067004;28;19940;-78
2023/04/28 02:31:32;;;;;;;;;;;7.20;99.90;;;;;;5062155;28;19978;-78
2023/04/28 02:33:57;;;;;;;;;;;7.30;99.90;;;;;;5066338;28;19932;-78
2023/04/28 02:36:23;;;;;;;;;;;7.10;99.90;;;;;;5067001;28;19928;-78
2023/04/28 02:38:48;;;;;;;;;;;7.00;99.90;;;;;;5061707;28;20399;-77
2023/04/28 02:41:14;;;;;;;;;;;7.10;99.90;;;;;;5050645;28;19958;-77
2023/04/28 02:43:40;;;;;;;;;;;6.90;99.90;;;;;;5065189;28;19954;-78
2023/04/28 02:46:05;;;;;;;;;;;7.00;99.90;;;;;;5069192;28;20390;-77
2023/04/28 02:48:34;;;;;;;;;;;7.00;99.90;;;;;;5070072;28;19970;-78
2023/04/28 02:50:59;;;;;;;;;;;7.00;99.90;;;;;;5066952;28;19929;-77
2023/04/28 02:53:25;;;;;;;;;;;7.00;99.90;;;;;;5072270;28;19955;-78
2023/04/28 02:55:50;;;;;;;;;;;6.90;99.90;;;;;;5065888;28;19924;-78
2023/04/28 02:58:16;;;;;;;;;;;7.00;99.90;;;;;;5069274;28;19928;-78
2023/04/28 03:00:42;;;;;;;;;;;6.90;99.90;;;;;;5073051;28;19932;-78
2023/04/28 03:03:07;;;;;;;;;;;7.00;99.90;;;;;;5072682;28;19955;-77
2023/04/28 03:05:33;;;;;;;;;;;7.00;99.90;;;;;;5070066;28;19928;-79
2023/04/28 03:07:59;;;;;;;;;;;7.00;99.90;;;;;;5072769;28;19935;-78
2023/04/28 03:10:25;;;;;;;;;;;7.00;99.90;;;;;;5076329;28;20014;-78
2023/04/28 03:12:50;;;;;;;;;;;7.00;99.90;;;;;;5072885;28;19947;-78
2023/04/28 03:15:16;;;;;;;;;;;7.00;99.90;;;;;;5073533;28;19932;-78
2023/04/28 03:17:42;;;;;;;;;;;7.00;99.90;;;;;;5071192;28;19959;-78
2023/04/28 03:20:08;;;;;;;;;;;6.90;99.90;;;;;;5071626;28;19935;-78
2023/04/28 03:22:33;;;;;;;;;;;6.90;99.90;;;;;;5060631;28;20285;-78
2023/04/28 03:24:59;;;;;;;;;;;7.00;99.90;;;;;;5060892;28;19928;-78
2023/04/28 03:27:25;;;;;;;;;;;6.80;99.90;;;;;;5053784;28;20036;-78
2023/04/28 03:29:50;;;;;;;;;;;6.80;99.90;;;;;;5060976;28;19935;-78
2023/04/28 03:32:16;;;;;;;;;;;6.80;99.90;;;;;;5060307;28;20274;-78
2023/04/28 03:34:41;;;;;;;;;;;6.80;99.90;;;;;;5058380;28;19932;-78
2023/04/28 03:37:12;;;;;;;;;;;6.80;99.90;;;;;;5066242;28;20414;-78
2023/04/28 03:39:38;;;;;;;;;;;6.80;99.90;;;;;;5074170;28;19928;-78
2023/04/28 03:42:03;;;;;;;;;;;6.70;99.90;;;;;;5070972;28;20380;-78
2023/04/28 03:44:29;;;;;;;;;;;6.70;99.90;;;;;;5076374;28;20278;-78
2023/04/28 03:46:55;;;;;;;;;;;6.80;99.90;;;;;;5075488;28;19931;-78
2023/04/28 03:49:20;;;;;;;;;;;6.80;99.90;;;;;;5072570;28;20655;-78
2023/04/28 03:51:46;;;;;;;;;;;6.80;99.90;;;;;;5075259;28;20034;-78
2023/04/28 03:54:12;;;;;;;;;;;6.70;99.90;;;;;;5071052;28;20301;-77
2023/04/28 03:56:37;;;;;;;;;;;6.70;99.90;;;;;;5073276;28;19928;-77
2023/04/28 03:59:03;;;;;;;;;;;6.60;99.90;;;;;;5075441;28;20411;-78
2023/04/28 04:01:29;;;;;;;;;;;6.70;99.90;;;;;;5069002;28;19932;-78
2023/04/28 04:03:55;;;;;;;;;;;6.70;99.90;;;;;;5072014;28;19932;-77
2023/04/28 04:06:20;;;;;;;;;;;6.70;99.90;;;;;;5070960;28;20985;-78
2023/04/28 04:08:52;;;;;;;;;;;6.80;99.90;;;;;;5076543;28;19932;-78
2023/04/28 04:11:17;;;;;;;;;;;6.80;99.90;;;;;;5068586;28;19940;-78
2023/04/28 04:13:43;;;;;;;;;;;6.70;99.90;;;;;;5074566;28;19928;-77
2023/04/28 04:16:09;;;;;;;;;;;6.60;99.90;;;;;;5069198;28;19935;-77
2023/04/28 04:18:34;;;;;;;;;;;6.60;99.90;;;;;;5076978;28;19937;-78
2023/04/28 04:21:00;;;;;;;;;;;6.70;99.90;;;;;;5072825;28;19978;-78
2023/04/28 04:23:25;;;;;;;;;;;6.60;99.90;;;;;;5074848;28;19933;-78
2023/04/28 04:25:51;;;;;;;;;;;6.60;99.90;;;;;;5074389;28;19973;-78
2023/04/28 04:28:16;;;;;;;;;;;6.60;99.90;;;;;;5076655;28;19959;-78
2023/04/28 04:30:42;;;;;;;;;;;6.70;99.90;;;;;;5072868;28;19932;-76
2023/04/28 04:33:08;;;;;;;;;;;6.70;99.90;;;;;;5069719;28;19940;-77
2023/04/28 04:35:33;;;;;;;;;;;6.70;99.90;;;;;;5071239;28;19928;-78
2023/04/28 04:38:00;;;;;;;;;;;6.80;99.90;;;;;;5072877;28;20051;-78
2023/04/28 04:40:26;;;;;;;;;;;6.80;99.90;;;;;;5073362;28;19928;-77
2023/04/28 04:42:51;;;;;;;;;;;6.80;99.90;;;;;;5067487;28;19928;-78
2023/04/28 04:45:17;;;;;;;;;;;6.90;99.90;;;;;;5063996;28;20307;-78
2023/04/28 04:47:42;;;;;;;;;;;6.90;99.90;;;;;;5073208;28;20019;-77
2023/04/28 04:50:08;;;;;;;;;;;7.00;99.90;;;;;;5073633;28;19954;-79
2023/04/28 04:52:33;;;;;;;;;;;7.00;99.90;;;;;;5072736;28;19954;-78
2023/04/28 04:54:59;;;;;;;;;;;7.00;99.90;;;;;;5078516;28;19963;-77
2023/04/28 04:57:24;;;;;;;;;;;7.00;99.90;;;;;;5069965;28;20020;-78
2023/04/28 04:59:50;;;;;;;;;;;7.00;99.90;;;;;;5072258;28;19967;-78
2023/04/28 05:02:16;;;;;;;;;;;7.00;99.90;;;;;;5054176;28;19966;-77
2023/04/28 05:04:41;;;;;;;;;;;7.10;99.90;;;;;;5056795;28;20057;-78
2023/04/28 05:07:07;;;;;;;;;;;7.10;99.90;;;;;;5070335;28;20299;-78
2023/04/28 05:09:32;;;;;;;;;;;7.10;99.90;;;;;;5067182;28;20463;-78
2023/04/28 05:11:58;;;;;;;;;;;7.10;99.90;;;;;;5070864;28;19928;-78
2023/04/28 05:14:23;;;;;;;;;;;7.20;99.90;;;;;;5057630;28;19951;-78
2023/04/28 05:16:49;;;;;;;;;;;7.20;99.90;;;;;;5072098;28;19935;-78
2023/04/28 05:19:15;;;;;;;;;;;7.20;99.90;;;;;;5075408;28;19928;-78
2023/04/28 05:21:40;;;;;;;;;;;7.30;99.90;;;;;;5072091;28;19925;-78
2023/04/28 05:24:06;;;;;;;;;;;7.30;99.90;;;;;;5073584;28;20012;-79
2023/04/28 05:26:31;;;;;;;;;;;7.30;99.90;;;;;;5068418;28;20018;-78
2023/04/28 05:28:57;;;;;;;;;;;7.40;99.90;;;;;;5070459;28;19928;-78
2023/04/28 05:31:23;;;;;;;;;;;7.40;99.90;;;;;;5065302;28;19951;-78
2023/04/28 05:33:48;;;;;;;;;;;7.40;99.90;;;;;;5069333;28;19928;-77
2023/04/28 05:36:15;;;;;;;;;;;7.50;99.90;;;;;;5071359;28;19939;-78
2023/04/28 05:38:41;;;;;;;;;;;7.50;99.90;;;;;;5075447;28;19928;-78
2023/04/28 05:41:07;;;;;;;;;;;7.50;99.90;;;;;;5072025;28;19971;-78
2023/04/28 05:43:32;;;;;;;;;;;7.50;99.90;;;;;;5073530;28;19932;-78
2023/04/28 05:45:59;;;;;;;;;;;7.50;99.90;;;;;;5072319;28;19935;-78
2023/04/28 05:48:24;;;;;;;;;;;7.50;99.90;;;;;;5074315;28;20047;-78
2023/04/28 05:50:50;;;;;;;;;;;7.60;99.90;;;;;;5069826;28;20374;-78
2023/04/28 05:53:15;;;;;;;;;;;7.60;99.90;;;;;;5072015;28;19932;-77
2023/04/28 05:55:41;;;;;;;;;;;7.50;99.90;;;;;;5052603;28;19943;-77
2023/04/28 05:58:07;;;;;;;;;;;7.60;99.90;;;;;;5071893;28;19928;-77
2023/04/28 06:00:33;;;;;;;;;;;7.50;99.90;;;;;;5067836;28;20629;-77
2023/04/28 06:02:59;;;;;;;;;;;7.60;99.90;;;;;;5070316;28;19959;-77
2023/04/28 06:05:24;;;;;;;;;;;7.50;99.90;;;;;;5071716;28;20073;-77
2023/04/28 06:07:50;;;;;;;;;;;7.50;99.90;;;;;;5069396;28;20269;-77
2023/04/28 06:10:15;;;;;;;;;;;7.60;99.90;;;;;;5073353;28;19924;-78
2023/04/28 06:12:41;;;;;;;;;;;7.60;99.90;;;;;;5067188;28;20508;-76
2023/04/28 06:15:06;;;;;;;;;;;7.60;99.90;;;;;;5072672;28;20496;-78
2023/04/28 06:17:32;;;;;;;;;;;7.60;99.90;;;;;;5062097;28;19939;-78
2023/04/28 06:19:58;;;;;;;;;;;7.70;99.90;;;;;;5072627;28;19981;-77
2023/04/28 06:22:24;;;;;;;;;;;7.70;99.90;;;;;;5072549;28;19928;-77
2023/04/28 06:24:50;;;;;;;;;;;7.80;99.90;;;;;;5068166;28;20309;-78
2023/04/28 06:27:15;;;;;;;;;;;7.80;99.90;;;;;;5052293;28;19935;-78
2023/04/28 06:29:41;;;;;;;;;;;7.80;99.90;;;;;;5072814;28;19928;-77
2023/04/28 06:32:07;;;;;;;;;;;7.80;99.90;;;;;;5067211;28;19928;-77
2023/04/28 06:34:33;;;;;;;;;;;7.90;99.90;;;;;;5067615;28;19928;-77
2023/04/28 06:36:59;;;;;;;;;;;7.90;99.90;;;;;;5066068;28;19935;-78
2023/04/28 06:39:24;;;;;;;;;;;7.90;99.90;;;;;;5070636;28;19932;-78
2023/04/28 06:41:50;;;;;;;;;;;8.00;99.90;;;;;;5065145;28;20416;-77
2023/04/28 06:44:15;;;;;;;;;;;7.90;99.90;;;;;;5066390;28;20001;-78
2023/04/28 06:46:41;;;;;;;;;;;8.00;99.90;;;;;;5066473;28;20613;-77
2023/04/28 06:49:06;;;;;;;;;;;8.00;99.90;;;;;;5068656;28;19983;-77
2023/04/28 06:51:32;;;;;;;;;;;8.00;99.90;;;;;;5071030;28;20285;-78
2023/04/28 06:53:58;;;;;;;;;;;8.00;99.90;;;;;;5071605;28;20067;-77
2023/04/28 06:56:23;;;;;;;;;;;8.00;99.90;;;;;;5072032;28;19928;-78
2023/04/28 06:58:49;;;;;;;;;;;8.10;99.90;;;;;;5049360;28;19997;-78
2023/04/28 07:01:15;;;;;;;;;;;8.20;99.90;;;;;;5069725;28;20030;-78
2023/04/28 07:03:41;;;;;;;;;;;8.20;99.90;;;;;;5070197;28;20351;-77
2023/04/28 07:06:06;;;;;;;;;;;8.20;99.90;;;;;;5071813;28;19924;-78
2023/04/28 07:08:33;;;;;;;;;;;8.20;99.90;;;;;;5069361;28;19932;-78
2023/04/28 07:10:58;;;;;;;;;;;8.30;99.90;;;;;;5071597;28;19938;-78
2023/04/28 07:13:24;;;;;;;;;;;8.50;99.90;;;;;;5071180;28;19932;-78
2023/04/28 07:15:49;;;;;;;;;;;8.60;99.90;;;;;;5071081;28;20355;-77
2023/04/28 07:18:15;;;;;;;;;;;8.70;99.90;;;;;;5072788;28;19928;-78
2023/04/28 07:20:41;;;;;;;;;;;8.70;99.90;;;;;;5071916;28;19924;-78
2023/04/28 07:23:06;;;;;;;;;;;8.80;99.90;;;;;;5073415;28;19958;-78
2023/04/28 07:25:32;;;;;;;;;;;8.80;99.90;;;;;;5073507;28;19936;-78
2023/04/28 07:27:57;;;;;;;;;;;9.20;99.90;;;;;;5068824;28;19932;-78
2023/04/28 07:30:23;;;;;;;;;;;9.00;99.90;;;;;;5069106;28;19939;-78
2023/04/28 07:32:49;;;;;;;;;;;9.10;99.90;;;;;;5072224;28;20529;-78
2023/04/28 07:35:14;;;;;;;;;;;9.30;99.90;;;;;;5076092;28;19928;-77
2023/04/28 07:37:41;;;;;;;;;;;9.30;99.90;;;;;;5055699;28;20344;-78
2023/04/28 07:40:07;;;;;;;;;;;9.30;99.90;;;;;;5076715;28;19936;-78
2023/04/28 07:42:32;;;;;;;;;;;9.50;99.90;;;;;;5073754;28;19928;-78
2023/04/28 07:44:58;;;;;;;;;;;9.40;99.90;;;;;;5074654;28;19928;-78
2023/04/28 07:47:24;;;;;;;;;;;9.20;99.90;;;;;;5075747;28;19968;-78
2023/04/28 07:49:49;;;;;;;;;;;9.50;99.90;;;;;;5073167;28;19935;-77
2023/04/28 07:52:15;;;;;;;;;;;9.50;99.90;;;;;;5073703;28;19928;-79
2023/04/28 07:54:40;;;;;;;;;;;9.60;99.90;;;;;;5079051;28;19928;-79
2023/04/28 07:57:06;;;;;;;;;;;9.80;99.90;;;;;;5063608;28;19939;-78
2023/04/28 07:59:33;;;;;;;;;;;10.00;99.90;;;;;;5077152;28;19928;-78
2023/04/28 08:01:58;;;;;;;;;;;10.30;99.90;;;;;;5072880;28;19928;-78
2023/04/28 08:04:24;;;;;;;;;;;10.50;99.90;;;;;;5066905;28;19940;-78
2023/04/28 08:06:49;;;;;;;;;;;10.50;99.90;;;;;;5062603;28;19928;-79
2023/04/28 08:09:15;;;;;;;;;;;10.60;99.90;;;;;;5063614;28;19982;-78
2023/04/28 08:11:41;;;;;;;;;;;10.60;99.90;;;;;;5072111;28;19932;-79
2023/04/28 08:14:06;;;;;;;;;;;10.40;99.90;;;;;;5077229;28;21594;-79
2023/04/28 08:16:35;;;;;;;;;;;10.70;99.90;;;;;;5071711;28;19927;-78
2023/04/28 08:19:01;;;;;;;;;;;10.90;99.90;;;;;;5074677;28;19931;-78
2023/04/28 08:21:26;;;;;;;;;;;11.10;99.90;;;;;;5072744;28;20278;-78
2023/04/28 08:23:52;;;;;;;;;;;10.90;99.90;;;;;;5077512;28;19989;-79
2023/04/28 08:26:17;;;;;;;;;;;10.80;99.90;;;;;;5074787;28;19928;-79
2023/04/28 08:28:43;;;;;;;;;;;11.00;99.90;;;;;;5074436;28;19929;-78
2023/04/28 08:31:09;;;;;;;;;;;11.10;99.90;;;;;;5072256;28;19928;-78
2023/04/28 08:33:34;;;;;;;;;;;11.10;99.90;;;;;;5076303;28;19928;-78
2023/04/28 08:36:00;;;;;;;;;;;11.50;99.90;;;;;;5071591;28;19962;-79
2023/04/28 08:38:25;;;;;;;;;;;11.50;99.90;;;;;;5073634;28;20809;-78
2023/04/28 08:40:51;;;;;;;;;;;11.80;99.90;;;;;;5070983;28;19935;-78
2023/04/28 08:43:17;;;;;;;;;;;12.00;99.90;;;;;;5075014;28;20742;-78
2023/04/28 08:45:44;;;;;;;;;;;11.70;99.90;;;;;;5068402;28;20542;-78
2023/04/28 08:48:17;;;;;;;;;;;12.10;99.90;;;;;;5069473;28;19924;-78
2023/04/28 08:50:43;;;;;;;;;;;12.20;99.90;;;;;;5072319;28;20359;-78
2023/04/28 08:53:09;;;;;;;;;;;12.30;99.90;;;;;;5073812;28;19977;-78
2023/04/28 08:55:35;;;;;;;;;;;12.30;99.90;;;;;;5072878;28;19932;-78
2023/04/28 08:58:01;;;;;;;;;;;12.20;99.90;;;;;;5066297;28;19932;-79
2023/04/28 09:00:27;;;;;;;;;;;12.00;99.90;;;;;;5075598;28;20378;-78
2023/04/28 09:02:53;;;;;;;;;;;12.00;99.90;;;;;;5074837;28;19996;-78
2023/04/28 09:05:18;;;;;;;;;;;12.10;99.90;;;;;;5073306;28;19954;-78
2023/04/28 09:07:49;;;;;;;;;;;12.50;99.90;;;;;;5055172;28;19932;-79
2023/04/28 09:10:19;;;;;;;;;;;12.60;99.90;;;;;;5048575;28;19975;-78
2023/04/28 09:12:44;;;;;;;;;;;12.90;99.90;;;;;;5073880;28;20026;-78
2023/04/28 09:15:10;;;;;;;;;;;13.70;99.90;;;;;;5070316;28;19928;-78
2023/04/28 09:17:48;;;;;;;;;;;14.00;99.90;;;;;;5071959;28;19954;-78
2023/04/28 09:20:24;;;;;;;;;;;13.90;99.90;;;;;;5069496;28;20555;-79
2023/04/28 09:22:50;;;;;;;;;;;14.00;99.90;;;;;;5064883;28;19943;-78
2023/04/28 09:25:17;;;;;;;;;;;13.50;99.90;;;;;;5066591;28;19985;-78
2023/04/28 09:27:42;;;;;;;;;;;13.80;99.90;;;;;;5069242;28;19927;-78
2023/04/28 09:30:08;;;;;;;;;;;13.10;99.90;;;;;;5069503;28;20612;-78
2023/04/28 09:32:35;;;;;;;;;;;12.80;99.90;;;;;;5070412;28;19935;-79
2023/04/28 09:35:01;;;;;;;;;;;12.70;99.90;;;;;;5071442;28;20077;-79
2023/04/28 09:37:30;;;;;;;;;;;12.60;99.90;;;;;;5072507;28;20544;-78
2023/04/28 09:40:17;;;;;;;;;;;13.00;99.90;;;;;;5068067;28;19975;-78
2023/04/28 09:42:43;;;;;;;;;;;13.00;99.90;;;;;;5067884;28;19993;-78
2023/04/28 09:45:10;;;;;;;;;;;13.00;99.90;;;;;;5061441;28;19930;-79
2023/04/28 09:47:37;;;;;;;;;;;12.90;99.90;;;;;;5072425;28;19932;-79
2023/04/28 09:50:03;;;;;;;;;;;13.00;99.90;;;;;;5071611;28;19934;-79
2023/04/28 09:52:29;;;;;;;;;;;13.00;99.90;;;;;;5067184;28;20015;-79
2023/04/28 09:54:55;;;;;;;;;;;13.40;99.90;;;;;;5068872;28;20161;-78
2023/04/28 09:57:21;;;;;;;;;;;13.40;99.90;;;;;;5066204;28;19935;-78
2023/04/28 09:59:48;;;;;;;;;;;13.70;99.90;;;;;;5071857;28;20392;-79
2023/04/28 10:02:16;;;;;;;;;;;13.50;99.90;;;;;;5055631;28;20335;-78
2023/04/28 10:04:43;;;;;;;;;;;14.00;99.90;;;;;;5066205;28;20387;-79
2023/04/28 10:07:10;;;;;;;;;;;14.60;99.90;;;;;;5066531;28;19951;-79
2023/04/28 10:09:37;;;;;;;;;;;14.30;99.90;;;;;;5063983;28;19929;-79
2023/04/28 10:12:02;;;;;;;;;;;14.70;99.90;;;;;;5067767;28;19928;-79
2023/04/28 10:14:30;;;;;;;;;;;15.60;99.90;;;;;;5074719;28;19977;-79
2023/04/28 10:16:57;;;;;;;;;;;15.80;99.90;;;;;;5040964;28;19978;-79
2023/04/28 10:19:23;;;;;;;;;;;16.20;99.90;;;;;;5051462;28;19977;-80
2023/04/28 10:21:56;;;;;;;;;;;16.30;99.90;;;;;;5055695;28;19937;-78
2023/04/28 10:24:25;;;;;;;;;;;16.20;99.90;;;;;;5039150;28;19954;-79
2023/04/28 10:27:02;;;;;;;;;;;16.50;99.90;;;;;;5055591;28;19978;-80
2023/04/28 10:29:29;;;;;;;;;;;15.90;99.90;;;;;;5059775;28;19928;-79
2023/04/28 10:32:13;;;;;;;;;;;15.40;99.90;;;;;;5056478;28;20306;-78
2023/04/28 10:34:39;;;;;;;;;;;15.50;99.90;;;;;;5071208;28;19962;-80
2023/04/28 10:37:04;;;;;;;;;;;15.20;99.90;;;;;;5068642;28;19932;-78
2023/04/28 10:39:30;;;;;;;;;;;15.20;99.90;;;;;;5070155;28;19924;-81
2023/04/28 10:41:55;;;;;;;;;;;15.50;99.90;;;;;;5067545;28;19928;-80
2023/04/28 10:44:27;;;;;;;;;;;15.40;99.90;;;;;;5073383;28;19981;-80
2023/04/28 10:47:03;;;;;;;;;;;15.20;99.90;;;;;;5054713;28;19958;-78
2023/04/28 10:49:47;;;;;;;;;;;15.70;99.90;;;;;;5072929;28;19935;-79
2023/04/28 10:52:39;;;;;;;;;;;15.90;99.90;;;;;;5071994;28;19928;-79
2023/04/28 10:55:23;;;;;;;;;;;15.70;99.90;;;;;;5059870;28;19960;-78
2023/04/28 10:58:15;;;;;;;;;;;15.40;99.90;;;;;;5068222;28;19979;-79
2023/04/28 11:00:41;;;;;;;;;;;15.80;99.90;;;;;;5060373;28;19928;-78
2023/04/28 11:03:07;;;;;;;;;;;16.20;99.90;;;;;;5073747;28;20424;-78
2023/04/28 11:05:34;;;;;;;;;;;16.40;99.90;;;;;;5071343;28;19934;-78
2023/04/28 11:08:18;;;;;;;;;;;16.30;99.90;;;;;;5073545;28;20625;-79
2023/04/28 11:11:02;;;;;;;;;;;16.90;99.90;;;;;;5068497;28;20445;-78
2023/04/28 11:13:32;;;;;;;;;;;16.70;99.90;;;;;;5072606;28;20442;-80
2023/04/28 11:16:04;;;;;;;;;;;17.10;99.90;;;;;;5072709;28;19935;-78
2023/04/28 11:18:53;;;;;;;;;;;17.60;99.90;;;;;;5059087;28;19928;-80
2023/04/28 11:21:19;;;;;;;;;;;16.60;99.90;;;;;;5074206;28;19928;-80
2023/04/28 11:23:45;;;;;;;;;;;16.90;99.90;;;;;;5071431;28;19924;-79
2023/04/28 11:26:10;;;;;;;;;;;16.80;99.90;;;;;;5073799;28;20013;-78
2023/04/28 11:28:45;;;;;;;;;;;16.60;99.90;;;;;;5069807;28;20042;-78
2023/04/28 11:31:22;;;;;;;;;;;16.30;99.90;;;;;;5072551;28;19939;-79
2023/04/28 11:33:50;;;;;;;;;;;16.00;99.90;;;;;;5060405;28;20404;-79
2023/04/28 11:36:22;;;;;;;;;;;16.50;99.90;;;;;;5077185;28;19935;-77
2023/04/28 11:38:48;;;;;;;;;;;16.60;99.90;;;;;;5079419;28;19932;-78
2023/04/28 11:41:13;;;;;;;;;;;16.20;99.90;;;;;;5075688;28;19929;-78
2023/04/28 11:43:39;;;;;;;;;;;15.80;99.90;;;;;;5073123;28;20337;-78
2023/04/28 11:46:06;;;;;;;;;;;16.20;99.90;;;;;;5072651;28;20042;-78
2023/04/28 11:48:31;;;;;;;;;;;15.80;99.90;;;;;;5075458;28;19947;-78
2023/04/28 11:50:57;;;;;;;;;;;15.40;99.90;;;;;;5071108;28;21607;-79
2023/04/28 11:53:42;;;;;;;;;;;15.90;99.90;;;;;;5061753;28;20705;-79
2023/04/28 11:56:08;;;;;;;;;;;16.10;99.90;;;;;;5072532;28;19932;-78
2023/04/28 11:58:34;;;;;;;;;;;16.30;99.90;;;;;;5067943;28;19978;-79
2023/04/28 12:01:09;;;;;;;;;;;16.30;99.90;;;;;;5069049;28;19928;-78
2023/04/28 12:03:42;;;;;;;;;;;16.20;99.90;;;;;;5072849;28;20003;-79
2023/04/28 12:06:07;;;;;;;;;;;16.30;99.90;;;;;;5073163;28;22023;-80
2023/04/28 12:08:33;;;;;;;;;;;16.10;99.90;;;;;;5075021;28;19975;-79
2023/04/28 12:11:07;;;;;;;;;;;15.90;99.90;;;;;;5075889;28;19999;-78
2023/04/28 12:13:32;;;;;;;;;;;15.90;99.90;;;;;;5077527;28;20018;-79
2023/04/28 12:16:02;;;;;;;;;;;15.80;99.90;;;;;;5066924;28;20019;-78
2023/04/28 12:18:28;;;;;;;;;;;15.80;99.90;;;;;;5073071;28;20495;-79
2023/04/28 12:20:53;;;;;;;;;;;15.80;99.90;;;;;;5074416;28;19934;-78
2023/04/28 12:23:32;;;;;;;;;;;15.40;99.90;;;;;;5076246;28;19935;-80
2023/04/28 12:25:57;;;;;;;;;;;15.40;99.90;;;;;;5073241;28;20033;-78
2023/04/28 12:28:26;;;;;;;;;;;15.60;99.90;;;;;;5073775;28;20405;-78
2023/04/28 12:31:02;;;;;;;;;;;15.60;99.90;;;;;;5074893;28;19928;-78
2023/04/28 12:33:28;;;;;;;;;;;15.40;99.90;;;;;;5078362;28;19924;-78
2023/04/28 12:35:57;;;;;;;;;;;15.40;99.90;;;;;;5075550;28;19970;-78
2023/04/28 12:38:23;;;;;;;;;;;15.50;99.90;;;;;;5076716;28;19932;-78
2023/04/28 12:40:48;;;;;;;;;;;15.50;99.90;;;;;;5072366;28;19929;-78
2023/04/28 12:43:14;;;;;;;;;;;15.40;99.90;;;;;;5064088;28;20023;-78
2023/04/28 12:45:40;;;;;;;;;;;15.40;99.90;;;;;;5071357;28;20028;-79
2023/04/28 12:48:06;;;;;;;;;;;15.30;99.90;;;;;;5067602;28;19934;-77
2023/04/28 12:50:32;;;;;;;;;;;15.20;99.90;;;;;;5058813;28;19928;-77
2023/04/28 12:52:58;;;;;;;;;;;15.30;99.90;;;;;;5057753;28;20293;-77
2023/04/28 12:55:23;;;;;;;;;;;15.40;99.90;;;;;;5057779;28;19925;-78
2023/04/28 12:57:49;;;;;;;;;;;15.50;99.90;;;;;;5068683;28;19977;-78
2023/04/28 13:00:15;;;;;;;;;;;15.60;99.90;;;;;;5072820;28;19928;-78
2023/04/28 13:02:41;;;;;;;;;;;15.60;99.90;;;;;;5070323;28;19928;-78
2023/04/28 13:05:09;;;;;;;;;;;15.60;99.90;;;;;;5067472;28;19932;-78
2023/04/28 13:07:35;;;;;;;;;;;15.60;99.90;;;;;;5075080;28;19928;-77
2023/04/28 13:10:00;;;;;;;;;;;15.30;99.90;;;;;;5064729;28;20305;-78
2023/04/28 13:12:26;;;;;;;;;;;15.10;99.90;;;;;;5072814;28;20691;-78
2023/04/28 13:14:51;;;;;;;;;;;15.20;99.90;;;;;;5056040;28;20100;-77
2023/04/28 13:17:17;;;;;;;;;;;15.20;99.90;;;;;;5068831;28;20035;-77
2023/04/28 13:19:43;;;;;;;;;;;15.30;99.90;;;;;;5071700;28;19928;-77
2023/04/28 13:22:08;;;;;;;;;;;15.10;99.90;;;;;;5068791;28;20348;-77
2023/04/28 13:24:34;;;;;;;;;;;14.70;99.90;;;;;;5074629;28;19939;-77
2023/04/28 13:27:01;;;;;;;;;;;14.50;99.90;;;;;;5067903;28;19981;-78
2023/04/28 13:29:27;;;;;;;;;;;14.50;99.90;;;;;;5073851;28;19932;-78
2023/04/28 13:31:53;;;;;;;;;;;14.50;99.90;;;;;;5066654;28;19939;-77
2023/04/28 13:34:18;;;;;;;;;;;14.50;99.90;;;;;;5069335;28;19935;-77
2023/04/28 13:36:44;;;;;;;;;;;14.70;99.90;;;;;;5073043;28;19974;-77
2023/04/28 13:39:15;;;;;;;;;;;14.70;99.90;;;;;;5067618;28;20953;-77
2023/04/28 13:41:41;;;;;;;;;;;14.90;99.90;;;;;;5067110;28;19981;-78
2023/04/28 13:44:07;;;;;;;;;;;14.80;99.90;;;;;;5070039;28;20538;-77
2023/04/28 13:46:32;;;;;;;;;;;14.80;99.90;;;;;;5071110;28;20022;-78
2023/04/28 13:48:58;;;;;;;;;;;14.70;99.90;;;;;;5065953;28;19928;-77
2023/04/28 13:51:23;;;;;;;;;;;14.60;99.90;;;;;;5068872;28;19968;-77
2023/04/28 13:53:49;;;;;;;;;;;14.60;99.90;;;;;;5072648;28;19981;-78
2023/04/28 13:56:15;;;;;;;;;;;14.70;99.90;;;;;;5068530;28;19981;-77
2023/04/28 13:58:40;;;;;;;;;;;14.70;99.90;;;;;;5067105;28;20727;-78
2023/04/28 14:01:06;;;;;;;;;;;14.70;99.90;;;;;;5062970;28;19935;-78
2023/04/28 14:03:33;;;;;;;;;;;14.70;99.90;;;;;;5071651;28;19928;-78
2023/04/28 14:06:00;;;;;;;;;;;14.80;99.90;;;;;;5066167;28;20400;-78
2023/04/28 14:08:26;;;;;;;;;;;14.80;99.90;;;;;;5067503;28;20226;-78
2023/04/28 14:10:52;;;;;;;;;;;14.90;99.90;;;;;;5066541;28;19928;-77
2023/04/28 14:13:18;;;;;;;;;;;15.00;99.90;;;;;;5075513;28;19935;-78
2023/04/28 14:15:44;;;;;;;;;;;14.90;99.90;;;;;;5060416;28;20293;-78
2023/04/28 14:18:09;;;;;;;;;;;14.90;99.90;;;;;;5070020;28;19924;-78
2023/04/28 14:20:35;;;;;;;;;;;14.90;99.90;;;;;;5074213;28;20039;-78